Time,TemperatureF,DewpointF,PressureIn,WindDirection,WindDirectionDegrees,WindSpeedMPH,WindSpeedGustMPH,Humidity,HourlyPrecipIn,Conditions,Clouds,dailyrainin,SolarRadiationWatts/m^2,SoftwareType,DateUTC
2013-06-29 00:00:00,58.3,56.6,29.73,NE,38,3.0,6.0,94,0.00,CLR,CLR,0.25,0.0,WeatherDisplay:10.37,2013-06-29 05:00:00,
2013-06-29 00:05:00,58.3,56.6,29.73,NE,34,1.0,7.0,94,0.00,CLR,CLR,0.25,0.0,WeatherDisplay:10.37,2013-06-29 05:05:00,
2013-06-29 00:10:00,58.3,56.9,29.73,NNE,25,6.0,9.0,95,0.00,CLR,CLR,0.25,0.0,WeatherDisplay:10.37,2013-06-29 05:10:00,
2013-06-29 00:15:00,58.3,56.9,29.73,NE,37,4.6,4.6,95,0.00,CLR,,0.25,0.0,WeatherDisplay:10.37,2013-06-29 05:15:00,
2013-06-29 00:20:00,58.3,56.9,29.73,NE,34,6.0,6.0,95,0.00,CLR,,0.25,0.0,WeatherDisplay:10.37,2013-06-29 05:20:00,
2013-06-29 00:25:00,58.3,56.9,29.73,NNE,32,3.5,3.5,95,0.00,CLR,,0.25,0.0,WeatherDisplay:10.37,2013-06-29 05:25:00,
2013-06-29 00:30:00,58.3,56.9,29.73,NNE,29,3.5,3.5,95,0.00,CLR,,0.25,0.0,WeatherDisplay:10.37,2013-06-29 05:30:00,
2013-06-29 00:35:00,58.3,56.9,29.73,NE,37,5.0,5.0,95,0.00,CLR,,0.25,0.0,WeatherDisplay:10.37,2013-06-29 05:35:00,
2013-06-29 00:40:00,58.4,57.0,29.73,NE,47,8.1,8.1,95,0.00,CLR,,0.25,0.0,WeatherDisplay:10.37,2013-06-29 05:40:00,
2013-06-29 00:46:00,58.4,57.0,29.73,NE,38,3.5,3.5,95,0.00,CLR,,0.25,0.0,WeatherDisplay:10.37,2013-06-29 05:46:00,
2013-06-29 00:51:00,58.4,57.0,29.73,NE,37,6.9,6.9,95,0.00,CLR,,0.25,0.0,WeatherDisplay:10.37,2013-06-29 05:51:00,
2013-06-29 00:56:00,58.4,57.0,29.73,NNE,25,10.4,10.4,95,0.00,CLR,,0.25,0.0,WeatherDisplay:10.37,2013-06-29 05:56:00,
2013-06-29 01:01:00,58.4,57.0,29.73,NE,41,7.0,7.0,95,0.00,CLR,,0.25,0.0,WeatherDisplay:10.37,2013-06-29 06:01:00,
2013-06-29 01:06:00,58.4,57.0,29.73,NE,34,11.5,11.5,95,0.00,CLR,,0.25,0.0,WeatherDisplay:10.37,2013-06-29 06:06:00,
2013-06-29 01:11:00,58.4,57.3,29.74,NNE,21,8.1,8.1,96,0.00,CLR,,0.25,0.0,WeatherDisplay:10.37,2013-06-29 06:11:00,
2013-06-29 01:16:00,58.4,57.3,29.74,NE,41,7.0,7.0,96,0.00,CLR,,0.25,0.0,WeatherDisplay:10.37,2013-06-29 06:16:00,
2013-06-29 01:21:00,58.4,57.3,29.73,NNE,27,9.2,9.2,96,0.00,CLR,,0.25,0.0,WeatherDisplay:10.37,2013-06-29 06:21:00,
2013-06-29 01:27:00,58.4,57.3,29.74,North,7,7.0,7.0,96,0.00,CLR,,0.25,0.0,WeatherDisplay:10.37,2013-06-29 06:27:00,
2013-06-29 01:32:00,58.4,57.3,29.74,NE,51,6.0,6.0,96,0.00,CLR,,0.25,0.0,WeatherDisplay:10.37,2013-06-29 06:32:00,
2013-06-29 01:37:00,58.4,57.3,29.73,NNE,15,8.1,8.1,96,0.00,CLR,,0.25,0.0,WeatherDisplay:10.37,2013-06-29 06:37:00,
2013-06-29 01:42:00,58.3,57.2,29.73,NE,40,9.2,9.2,96,0.00,CLR,,0.25,0.0,WeatherDisplay:10.37,2013-06-29 06:42:00,
2013-06-29 01:47:00,58.3,57.2,29.74,NNE,30,10.4,10.4,96,0.00,CLR,,0.25,0.0,WeatherDisplay:10.37,2013-06-29 06:47:00,
2013-06-29 01:52:00,58.3,57.2,29.74,NE,36,10.4,10.4,96,0.00,CLR,,0.25,0.0,WeatherDisplay:10.37,2013-06-29 06:52:00,
2013-06-29 01:57:00,58.3,57.2,29.74,NNE,29,4.0,4.0,96,0.00,CLR,,0.25,0.0,WeatherDisplay:10.37,2013-06-29 06:57:00,
2013-06-29 02:03:00,58.3,57.2,29.74,East,94,7.0,7.0,96,0.00,CLR,,0.25,0.0,WeatherDisplay:10.37,2013-06-29 07:03:00,
2013-06-29 02:08:00,58.3,57.2,29.74,North,354,10.4,10.4,96,0.00,CLR,,0.25,0.0,WeatherDisplay:10.37,2013-06-29 07:08:00,
2013-06-29 02:13:00,58.3,57.2,29.74,NNE,25,11.5,11.5,96,0.00,CLR,,0.25,0.0,WeatherDisplay:10.37,2013-06-29 07:13:00,
2013-06-29 02:18:00,58.3,57.2,29.74,NNE,29,10.4,10.4,96,0.00,CLR,,0.25,0.0,WeatherDisplay:10.37,2013-06-29 07:18:00,
2013-06-29 02:23:00,58.1,57.0,29.74,NNE,28,12.7,12.7,96,0.00,CLR,,0.25,0.0,WeatherDisplay:10.37,2013-06-29 07:23:00,
2013-06-29 02:28:00,58.1,57.0,29.74,NNW,340,10.0,10.0,96,0.00,CLR,,0.25,0.0,WeatherDisplay:10.37,2013-06-29 07:28:00,
2013-06-29 02:33:00,58.1,57.0,29.74,NE,48,9.2,9.2,96,0.00,CLR,,0.25,0.0,WeatherDisplay:10.37,2013-06-29 07:33:00,
2013-06-29 02:38:00,58.1,57.0,29.74,NNE,27,10.4,10.4,96,0.00,CLR,,0.25,0.0,WeatherDisplay:10.37,2013-06-29 07:38:00,
2013-06-29 02:44:00,58.1,57.0,29.74,NNE,29,10.0,10.0,96,0.00,CLR,,0.25,0.0,WeatherDisplay:10.37,2013-06-29 07:44:00,
2013-06-29 02:49:00,58.1,57.3,29.74,NE,44,12.0,12.0,97,0.00,CLR,,0.25,0.0,WeatherDisplay:10.37,2013-06-29 07:49:00,
2013-06-29 02:54:00,58.0,57.2,29.74,North,1,10.4,10.4,97,0.00,CLR,,0.25,0.0,WeatherDisplay:10.37,2013-06-29 07:54:00,
2013-06-29 02:59:00,58.0,57.2,29.74,NE,37,11.5,11.5,97,0.00,CLR,,0.25,0.0,WeatherDisplay:10.37,2013-06-29 07:59:00,
2013-06-29 03:04:00,58.0,57.2,29.74,NNE,20,12.7,12.7,97,0.00,CLR,,0.25,0.0,WeatherDisplay:10.37,2013-06-29 08:04:00,
2013-06-29 03:09:00,58.0,57.2,29.74,NNE,19,9.2,9.2,97,0.00,CLR,,0.25,0.0,WeatherDisplay:10.37,2013-06-29 08:09:00,
2013-06-29 03:14:00,58.0,57.2,29.74,NE,56,6.9,6.9,97,0.00,CLR,,0.25,0.0,WeatherDisplay:10.37,2013-06-29 08:14:00,
2013-06-29 03:20:00,58.0,57.2,29.74,NNE,33,13.8,13.8,97,0.00,CLR,,0.25,0.0,WeatherDisplay:10.37,2013-06-29 08:20:00,
2013-06-29 03:25:00,58.0,57.2,29.74,NE,43,5.0,12.0,97,0.00,CLR,CLR,0.25,0.0,WeatherDisplay:10.37,2013-06-29 08:25:00,
2013-06-29 03:30:00,58.0,57.2,29.74,NE,35,6.0,14.0,97,0.00,CLR,CLR,0.25,0.0,WeatherDisplay:10.37,2013-06-29 08:30:00,
2013-06-29 03:35:00,57.8,57.0,29.74,North,5,10.4,10.4,97,0.00,CLR,,0.25,0.0,WeatherDisplay:10.37,2013-06-29 08:35:00,
2013-06-29 03:40:00,57.8,57.0,29.74,NNE,29,7.0,12.0,97,0.00,CLR,CLR,0.25,0.0,WeatherDisplay:10.37,2013-06-29 08:40:00,
2013-06-29 03:45:00,57.8,57.0,29.74,NNE,18,11.5,11.5,97,0.00,CLR,,0.25,0.0,WeatherDisplay:10.37,2013-06-29 08:45:00,
2013-06-29 03:50:00,57.8,57.0,29.74,NE,53,8.0,8.0,97,0.00,CLR,,0.25,0.0,WeatherDisplay:10.37,2013-06-29 08:50:00,
2013-06-29 03:55:00,57.8,57.0,29.74,ENE,58,11.5,11.5,97,0.00,CLR,,0.25,0.0,WeatherDisplay:10.37,2013-06-29 08:55:00,
2013-06-29 04:00:00,57.8,57.0,29.74,NE,42,11.5,11.5,97,0.00,CLR,,0.25,0.0,WeatherDisplay:10.37,2013-06-29 09:00:00,
2013-06-29 04:05:00,57.8,57.0,29.74,NNE,18,8.1,8.1,97,0.00,CLR,,0.25,0.0,WeatherDisplay:10.37,2013-06-29 09:05:00,
2013-06-29 04:10:00,57.8,57.0,29.74,North,360,11.5,11.5,97,0.00,CLR,,0.25,0.0,WeatherDisplay:10.37,2013-06-29 09:10:00,
2013-06-29 04:16:00,58.0,57.2,29.74,ENE,58,15.0,15.0,97,0.00,CLR,,0.25,0.0,WeatherDisplay:10.37,2013-06-29 09:16:00,
2013-06-29 04:21:00,58.0,57.2,29.75,ENE,65,17.3,17.3,97,0.00,CLR,,0.25,0.0,WeatherDisplay:10.37,2013-06-29 09:21:00,
2013-06-29 04:26:00,58.0,57.2,29.75,NE,43,11.5,11.5,97,0.00,CLR,,0.25,0.0,WeatherDisplay:10.37,2013-06-29 09:26:00,
2013-06-29 04:31:00,58.0,57.2,29.75,North,5,9.2,9.2,97,0.00,CLR,,0.25,0.0,WeatherDisplay:10.37,2013-06-29 09:31:00,
2013-06-29 04:36:00,58.0,57.2,29.75,NE,50,12.7,12.7,97,0.00,CLR,,0.25,0.0,WeatherDisplay:10.37,2013-06-29 09:36:00,
2013-06-29 04:41:00,58.0,57.2,29.75,NNE,29,6.9,6.9,97,0.00,CLR,,0.25,0.0,WeatherDisplay:10.37,2013-06-29 09:41:00,
2013-06-29 04:46:00,58.0,57.2,29.75,NNE,28,11.0,11.0,97,0.00,CLR,,0.25,0.0,WeatherDisplay:10.37,2013-06-29 09:46:00,
2013-06-29 04:51:00,58.0,57.2,29.75,NNE,21,10.4,10.4,97,0.00,CLR,,0.25,0.0,WeatherDisplay:10.37,2013-06-29 09:51:00,
2013-06-29 04:57:00,58.0,57.2,29.75,NNW,331,11.5,11.5,97,0.00,CLR,,0.25,0.0,WeatherDisplay:10.37,2013-06-29 09:57:00,
2013-06-29 05:02:00,57.8,57.0,29.75,NNE,29,11.5,11.5,97,0.00,CLR,,0.25,0.0,WeatherDisplay:10.37,2013-06-29 10:02:00,
2013-06-29 05:07:00,57.8,57.0,29.75,NE,38,8.1,8.1,97,0.00,CLR,,0.25,0.0,WeatherDisplay:10.37,2013-06-29 10:07:00,
2013-06-29 05:12:00,57.6,56.8,29.75,NE,37,8.1,8.1,97,0.00,CLR,,0.25,0.0,WeatherDisplay:10.37,2013-06-29 10:12:00,
2013-06-29 05:17:00,57.6,56.8,29.75,NE,56,6.9,6.9,97,0.00,CLR,,0.25,0.0,WeatherDisplay:10.37,2013-06-29 10:17:00,
2013-06-29 05:22:00,57.6,56.8,29.76,NE,50,7.0,7.0,97,0.00,CLR,,0.25,0.0,WeatherDisplay:10.37,2013-06-29 10:22:00,
2013-06-29 05:27:00,57.5,56.7,29.76,ENE,60,5.8,5.8,97,0.00,CLR,,0.25,0.0,WeatherDisplay:10.37,2013-06-29 10:27:00,
2013-06-29 05:33:00,57.5,56.4,29.76,North,11,9.2,9.2,96,0.00,CLR,,0.25,0.0,WeatherDisplay:10.37,2013-06-29 10:33:00,
2013-06-29 05:38:00,57.5,56.4,29.76,NNE,27,10.4,10.4,96,0.00,CLR,,0.25,0.0,WeatherDisplay:10.37,2013-06-29 10:38:00,
2013-06-29 05:43:00,57.3,57.3,29.76,NE,53,5.8,5.8,100,0.00,CLR,,0.25,0.0,WeatherDisplay:10.37,2013-06-29 10:43:00,
2013-06-29 05:48:00,57.3,56.2,29.76,NNE,12,8.1,8.1,96,0.00,CLR,,0.25,0.0,WeatherDisplay:10.37,2013-06-29 10:48:00,
2013-06-29 05:53:00,57.3,56.2,29.77,NNE,25,8.0,8.0,96,0.00,CLR,,0.25,0.0,WeatherDisplay:10.37,2013-06-29 10:53:00,
2013-06-29 05:58:00,57.3,56.2,29.77,NE,38,6.9,6.9,96,0.00,CLR,,0.25,0.0,WeatherDisplay:10.37,2013-06-29 10:58:00,
2013-06-29 06:03:00,57.2,56.1,29.77,NE,40,8.1,8.1,96,0.00,CLR,,0.25,0.0,WeatherDisplay:10.37,2013-06-29 11:03:00,
2013-06-29 06:08:00,57.2,56.1,29.77,NNE,26,7.0,7.0,96,0.00,CLR,,0.25,0.0,WeatherDisplay:10.37,2013-06-29 11:08:00,
2013-06-29 06:14:00,57.2,56.1,29.77,NNE,27,7.0,7.0,96,0.00,CLR,,0.25,0.0,WeatherDisplay:10.37,2013-06-29 11:14:00,
2013-06-29 06:19:00,57.2,56.1,29.77,NNE,20,5.0,5.0,96,0.00,CLR,,0.25,0.0,WeatherDisplay:10.37,2013-06-29 11:19:00,
2013-06-29 06:24:00,57.2,56.1,29.77,NNE,33,5.8,5.8,96,0.00,CLR,,0.25,0.0,WeatherDisplay:10.37,2013-06-29 11:24:00,
2013-06-29 06:29:00,57.0,55.9,29.78,NNE,12,10.0,10.0,96,0.00,CLR,,0.25,0.0,WeatherDisplay:10.37,2013-06-29 11:29:00,
2013-06-29 06:34:00,57.0,55.9,29.78,NNE,26,10.4,10.4,96,0.00,CLR,,0.25,0.0,WeatherDisplay:10.37,2013-06-29 11:34:00,
2013-06-29 06:39:00,57.0,55.9,29.78,NNE,33,10.4,10.4,96,0.00,CLR,,0.25,0.0,WeatherDisplay:10.37,2013-06-29 11:39:00,
2013-06-29 06:44:00,57.2,56.1,29.78,North,7,9.2,9.2,96,0.00,CLR,,0.25,0.0,WeatherDisplay:10.37,2013-06-29 11:44:00,
2013-06-29 06:50:00,57.2,56.1,29.78,NNE,23,5.8,5.8,96,0.00,CLR,,0.25,0.0,WeatherDisplay:10.37,2013-06-29 11:50:00,
2013-06-29 06:55:00,57.2,56.1,29.78,NE,36,6.0,9.0,96,0.00,CLR,CLR,0.25,0.0,WeatherDisplay:10.37,2013-06-29 11:55:00,
2013-06-29 07:00:00,57.2,55.8,29.78,NE,37,6.0,12.0,95,0.00,RA,RA,0.00,0.0,WeatherDisplay:10.37,2013-06-29 12:00:00,
2013-06-29 07:05:00,57.2,55.8,29.78,NE,38,6.0,13.0,95,0.00,RA,RA,0.00,0.0,WeatherDisplay:10.37,2013-06-29 12:05:00,
2013-06-29 07:10:00,57.2,55.8,29.79,NE,46,8.1,8.1,95,0.00,RA,,0.00,0.0,WeatherDisplay:10.37,2013-06-29 12:10:00,
2013-06-29 07:15:00,57.2,55.8,29.79,NNE,26,5.0,10.0,95,0.00,OVC,OVC,0.00,0.0,WeatherDisplay:10.37,2013-06-29 12:15:00,
2013-06-29 07:20:00,57.2,55.5,29.79,NNE,26,10.4,10.4,94,0.00,OVC,,0.00,0.0,WeatherDisplay:10.37,2013-06-29 12:20:00,
2013-06-29 07:25:00,57.2,55.5,29.80,NNE,27,5.0,9.0,94,0.00,OVC,OVC,0.00,0.0,WeatherDisplay:10.37,2013-06-29 12:25:00,
2013-06-29 07:30:00,57.2,55.5,29.80,NE,50,7.0,7.0,94,0.00,OVC,,0.00,0.0,WeatherDisplay:10.37,2013-06-29 12:30:00,
2013-06-29 07:35:00,57.3,55.6,29.80,NE,44,8.1,8.1,94,0.00,OVC,,0.00,0.0,WeatherDisplay:10.37,2013-06-29 12:35:00,
2013-06-29 07:40:00,57.3,55.3,29.80,NE,51,5.0,5.0,93,0.00,OVC,,0.00,0.0,WeatherDisplay:10.37,2013-06-29 12:40:00,
2013-06-29 07:45:00,57.5,55.5,29.80,NE,37,6.9,6.9,93,0.00,OVC,,0.00,0.0,WeatherDisplay:10.37,2013-06-29 12:45:00,
2013-06-29 07:50:00,57.5,55.5,29.80,NNE,33,4.6,4.6,93,0.00,OVC,,0.00,0.0,WeatherDisplay:10.37,2013-06-29 12:50:00,
2013-06-29 07:55:00,57.6,55.6,29.80,NNE,19,8.1,8.1,93,0.00,OVC,,0.00,0.0,WeatherDisplay:10.37,2013-06-29 12:55:00,
2013-06-29 08:00:00,57.6,55.3,29.80,NE,37,4.6,4.6,92,0.00,OVC,,0.00,0.0,WeatherDisplay:10.37,2013-06-29 13:00:00,
2013-06-29 08:06:00,57.8,55.5,29.80,NE,34,3.5,3.5,92,0.00,OVC,,0.00,0.0,WeatherDisplay:10.37,2013-06-29 13:06:00,
2013-06-29 08:11:00,57.8,55.5,29.80,NNE,27,4.6,4.6,92,0.00,OVC,,0.00,0.0,WeatherDisplay:10.37,2013-06-29 13:11:00,
2013-06-29 08:16:00,58.0,55.7,29.81,NNE,23,2.3,2.3,92,0.00,OVC,,0.00,0.0,WeatherDisplay:10.37,2013-06-29 13:16:00,
2013-06-29 08:21:00,58.1,55.8,29.81,North,360,3.5,0.0,92,0.00,OVC,,0.00,0.0,WeatherDisplay:10.37,2013-06-29 13:21:00,
2013-06-29 08:26:00,58.3,55.7,29.81,NNE,21,8.0,8.0,91,0.00,OVC,,0.00,0.0,WeatherDisplay:10.37,2013-06-29 13:26:00,
2013-06-29 08:31:00,58.6,55.4,29.81,North,5,8.1,8.1,89,0.00,OVC,,0.00,0.0,WeatherDisplay:10.37,2013-06-29 13:31:00,
2013-06-29 08:36:00,58.7,55.2,29.81,North,9,8.1,8.1,88,0.00,OVC,,0.00,0.0,WeatherDisplay:10.37,2013-06-29 13:36:00,
2013-06-29 08:42:00,59.0,55.4,29.82,NNE,21,4.0,4.0,88,0.00,OVC,,0.00,0.0,WeatherDisplay:10.37,2013-06-29 13:42:00,
2013-06-29 08:47:00,59.2,55.3,29.82,NNE,29,6.9,6.9,87,0.00,OVC,,0.00,0.0,WeatherDisplay:10.37,2013-06-29 13:47:00,
2013-06-29 08:52:00,59.5,55.3,29.82,North,354,7.0,7.0,86,0.00,OVC,,0.00,0.0,WeatherDisplay:10.37,2013-06-29 13:52:00,
2013-06-29 08:57:00,59.8,55.3,29.82,NNE,18,3.5,3.5,85,0.00,OVC,,0.00,0.0,WeatherDisplay:10.37,2013-06-29 13:57:00,
2013-06-29 09:02:00,59.9,54.7,29.82,NE,47,8.1,8.1,83,0.00,OVC,,0.00,0.0,WeatherDisplay:10.37,2013-06-29 14:02:00,
2013-06-29 09:07:00,60.2,54.7,29.82,NNE,26,8.1,8.1,82,0.00,OVC,,0.00,0.0,WeatherDisplay:10.37,2013-06-29 14:07:00,
2013-06-29 09:12:00,60.5,54.6,29.82,NE,36,8.0,8.0,81,0.00,OVC,,0.00,0.0,WeatherDisplay:10.37,2013-06-29 14:12:00,
2013-06-29 09:17:00,60.9,54.3,29.82,NE,44,10.4,10.4,79,0.00,OVC,,0.00,0.0,WeatherDisplay:10.37,2013-06-29 14:17:00,
2013-06-29 09:23:00,61.2,54.3,29.82,NE,39,10.4,10.4,78,0.00,OVC,,0.00,0.0,WeatherDisplay:10.37,2013-06-29 14:23:00,
2013-06-29 09:28:00,61.3,54.4,29.82,NNE,22,12.7,12.7,78,0.00,OVC,,0.00,0.0,WeatherDisplay:10.37,2013-06-29 14:28:00,
2013-06-29 09:33:00,61.6,54.3,29.82,North,350,12.0,12.0,77,0.00,OVC,,0.00,0.0,WeatherDisplay:10.37,2013-06-29 14:33:00,
2013-06-29 09:38:00,61.8,54.2,29.82,NNE,29,11.5,11.5,76,0.00,OVC,,0.00,0.0,WeatherDisplay:10.37,2013-06-29 14:38:00,
2013-06-29 09:43:00,62.1,54.4,29.82,NNW,335,15.0,15.0,76,0.00,OVC,,0.00,0.0,WeatherDisplay:10.37,2013-06-29 14:43:00,
2013-06-29 09:48:00,62.3,54.6,29.82,NW,319,19.6,19.6,76,0.00,OVC,,0.00,0.0,WeatherDisplay:10.37,2013-06-29 14:48:00,
2013-06-29 09:53:00,62.4,54.4,29.82,NE,39,15.0,15.0,75,0.00,OVC,,0.00,0.0,WeatherDisplay:10.37,2013-06-29 14:53:00,
2013-06-29 09:59:00,62.6,55.3,29.82,NE,56,9.2,9.2,77,0.00,OVC,,0.00,0.0,WeatherDisplay:10.37,2013-06-29 14:59:00,
2013-06-29 10:04:00,62.7,55.4,29.83,NNE,25,13.8,13.8,77,0.00,OVC,,0.00,0.0,WeatherDisplay:10.37,2013-06-29 15:04:00,
2013-06-29 10:09:00,63.1,56.5,29.83,NNE,21,15.0,15.0,79,0.00,OVC,,0.00,0.0,WeatherDisplay:10.37,2013-06-29 15:09:00,
2013-06-29 10:14:00,63.2,55.5,29.82,NNE,25,9.0,9.0,76,0.00,OVC,,0.00,0.0,WeatherDisplay:10.37,2013-06-29 15:14:00,
2013-06-29 10:20:00,63.1,55.4,29.83,NE,44,12.7,12.7,76,0.00,OVC,,0.00,0.0,WeatherDisplay:10.37,2013-06-29 15:20:00,
2013-06-29 10:25:00,63.2,55.5,29.83,NNE,21,9.0,15.0,76,0.00,OVC,OVC,0.00,0.0,WeatherDisplay:10.37,2013-06-29 15:25:00,
2013-06-29 10:30:00,63.1,56.1,29.83,NE,42,11.5,11.5,78,0.00,OVC,,0.00,0.0,WeatherDisplay:10.37,2013-06-29 15:30:00,
2013-06-29 10:35:00,63.1,56.1,29.83,NNE,14,9.0,17.0,78,0.00,OVC,OVC,0.00,0.0,WeatherDisplay:10.37,2013-06-29 15:35:00,
2013-06-29 10:40:00,62.7,55.7,29.83,North,355,11.5,11.5,78,0.00,OVC,,0.00,0.0,WeatherDisplay:10.37,2013-06-29 15:40:00,
2013-06-29 10:45:00,63.1,57.5,29.83,NNE,19,3.0,12.0,82,0.00,OVC,OVC,0.00,0.0,WeatherDisplay:10.37,2013-06-29 15:45:00,
2013-06-29 10:50:00,63.1,56.1,29.84,North,7,17.3,17.3,78,0.00,OVC,,0.00,0.0,WeatherDisplay:10.37,2013-06-29 15:50:00,
2013-06-29 10:55:00,62.9,56.0,29.84,NNE,12,7.0,17.0,78,0.00,OVC,OVC,0.00,0.0,WeatherDisplay:10.37,2013-06-29 15:55:00,
2013-06-29 11:00:00,63.2,56.2,29.84,NNE,17,7.0,21.0,78,0.00,OVC,OVC,0.00,0.0,WeatherDisplay:10.37,2013-06-29 16:00:00,
2013-06-29 11:05:00,63.2,55.9,29.84,NNE,24,18.4,18.4,77,0.00,OVC,,0.00,0.0,WeatherDisplay:10.37,2013-06-29 16:05:00,
2013-06-29 11:10:00,63.4,56.1,29.84,NE,46,20.0,20.0,77,0.00,OVC,,0.00,0.0,WeatherDisplay:10.37,2013-06-29 16:10:00,
2013-06-29 11:15:00,63.4,55.7,29.84,NNE,24,12.7,12.7,76,0.00,OVC,,0.00,0.0,WeatherDisplay:10.37,2013-06-29 16:15:00,
2013-06-29 11:20:00,63.4,55.3,29.84,North,10,12.7,12.7,75,0.00,OVC,,0.00,0.0,WeatherDisplay:10.37,2013-06-29 16:20:00,
2013-06-29 11:25:00,63.4,55.0,29.85,NE,40,15.0,15.0,74,0.00,OVC,,0.00,0.0,WeatherDisplay:10.37,2013-06-29 16:25:00,
2013-06-29 11:30:00,63.5,55.4,29.85,NNW,331,17.3,17.3,75,0.00,OVC,,0.00,0.0,WeatherDisplay:10.37,2013-06-29 16:30:00,
2013-06-29 11:36:00,63.4,54.6,29.85,North,9,19.6,19.6,73,0.00,OVC,,0.00,0.0,WeatherDisplay:10.37,2013-06-29 16:36:00,
2013-06-29 11:41:00,63.1,54.3,29.85,NNE,17,11.0,11.0,73,0.00,OVC,,0.00,0.0,WeatherDisplay:10.37,2013-06-29 16:41:00,
2013-06-29 11:46:00,63.1,53.2,29.86,NNE,17,16.1,16.1,70,0.00,OVC,,0.00,0.0,WeatherDisplay:10.37,2013-06-29 16:46:00,
2013-06-29 11:51:00,62.9,53.4,29.86,NNE,32,10.4,10.4,71,0.00,OVC,,0.00,0.0,WeatherDisplay:10.37,2013-06-29 16:51:00,
2013-06-29 11:56:00,63.2,54.4,29.86,North,351,8.1,8.1,73,0.00,OVC,,0.00,0.0,WeatherDisplay:10.37,2013-06-29 16:56:00,
2013-06-29 12:01:00,63.5,54.7,29.86,NE,52,9.2,9.2,73,0.00,OVC,,0.00,0.0,WeatherDisplay:10.37,2013-06-29 17:01:00,
2013-06-29 12:06:00,63.4,52.7,29.86,NNE,25,14.0,14.0,68,0.00,OVC,,0.00,0.0,WeatherDisplay:10.37,2013-06-29 17:06:00,
2013-06-29 12:12:00,63.4,52.7,29.86,North,1,17.3,17.3,68,0.00,OVC,,0.00,0.0,WeatherDisplay:10.37,2013-06-29 17:12:00,
2013-06-29 12:17:00,63.7,52.9,29.86,NNE,18,11.5,11.5,68,0.00,OVC,,0.00,0.0,WeatherDisplay:10.37,2013-06-29 17:17:00,
2013-06-29 12:22:00,64.0,53.2,29.87,North,356,17.0,17.0,68,0.00,OVC,,0.00,0.0,WeatherDisplay:10.37,2013-06-29 17:22:00,
2013-06-29 12:27:00,63.7,52.5,29.87,ENE,64,15.0,15.0,67,0.00,OVC,,0.00,0.0,WeatherDisplay:10.37,2013-06-29 17:27:00,
2013-06-29 12:32:00,63.5,51.9,29.87,NE,53,17.3,17.3,66,0.00,OVC,,0.00,0.0,WeatherDisplay:10.37,2013-06-29 17:32:00,
2013-06-29 12:37:00,63.5,52.3,29.87,NE,50,15.0,15.0,67,0.00,OVC,,0.00,0.0,WeatherDisplay:10.37,2013-06-29 17:37:00,
2013-06-29 12:42:00,63.7,51.7,29.87,NNW,327,19.0,19.0,65,0.00,OVC,,0.00,0.0,WeatherDisplay:10.37,2013-06-29 17:42:00,
2013-06-29 12:47:00,63.7,52.1,29.87,NNE,23,16.1,16.1,66,0.00,OVC,,0.00,0.0,WeatherDisplay:10.37,2013-06-29 17:47:00,
2013-06-29 12:53:00,64.2,52.6,29.87,NNE,28,16.1,16.1,66,0.00,OVC,,0.00,0.0,WeatherDisplay:10.37,2013-06-29 17:53:00,
2013-06-29 12:58:00,64.0,52.8,29.87,East,91,16.1,16.1,67,0.00,OVC,,0.00,0.0,WeatherDisplay:10.37,2013-06-29 17:58:00,
2013-06-29 13:03:00,64.2,51.8,29.87,NE,49,10.0,10.0,64,0.00,OVC,,0.00,0.0,WeatherDisplay:10.37,2013-06-29 18:03:00,
2013-06-29 13:08:00,64.7,53.9,29.87,NNE,19,18.0,18.0,68,0.00,OVC,,0.00,0.0,WeatherDisplay:10.37,2013-06-29 18:08:00,
2013-06-29 13:14:00,64.2,51.8,29.88,NNE,28,18.4,18.4,64,0.00,OVC,,0.00,0.0,WeatherDisplay:10.37,2013-06-29 18:14:00,
2013-06-29 13:19:00,64.2,51.8,29.88,NE,48,19.6,19.6,64,0.00,OVC,,0.00,0.0,WeatherDisplay:10.37,2013-06-29 18:19:00,
2013-06-29 13:24:00,64.2,51.8,29.88,NE,38,19.6,19.6,64,0.00,OVC,,0.00,0.0,WeatherDisplay:10.37,2013-06-29 18:24:00,
2013-06-29 13:29:00,64.2,51.8,29.88,NE,38,11.5,11.5,64,0.00,OVC,,0.00,0.0,WeatherDisplay:10.37,2013-06-29 18:29:00,
2013-06-29 13:34:00,64.8,52.8,29.88,ENE,67,9.0,9.0,65,0.00,OVC,,0.00,0.0,WeatherDisplay:10.37,2013-06-29 18:34:00,
2013-06-29 13:39:00,64.7,51.8,29.88,NNE,27,15.0,15.0,63,0.00,OVC,,0.00,0.0,WeatherDisplay:10.37,2013-06-29 18:39:00,
2013-06-29 13:44:00,64.7,53.9,29.88,NNE,22,13.8,13.8,68,0.00,OVC,,0.00,0.0,WeatherDisplay:10.37,2013-06-29 18:44:00,
2013-06-29 13:50:00,65.0,50.8,29.88,NNE,33,13.8,13.8,60,0.00,OVC,,0.00,0.0,WeatherDisplay:10.37,2013-06-29 18:50:00,
2013-06-29 13:55:00,64.9,51.2,29.88,NNE,13,10.0,16.0,61,0.00,OVC,OVC,0.00,0.0,WeatherDisplay:10.37,2013-06-29 18:55:00,
2013-06-29 14:00:00,65.0,51.2,29.88,NNE,29,9.0,16.0,61,0.00,OVC,OVC,0.00,0.0,WeatherDisplay:10.37,2013-06-29 19:00:00,
2013-06-29 14:05:00,65.5,52.1,29.88,NE,46,7.0,17.0,62,0.00,OVC,OVC,0.00,0.0,WeatherDisplay:10.37,2013-06-29 19:05:00,
2013-06-29 14:10:00,65.5,51.2,29.88,NE,40,7.0,18.0,60,0.00,OVC,OVC,0.00,0.0,WeatherDisplay:10.37,2013-06-29 19:10:00,
2013-06-29 14:15:00,66.4,52.5,29.88,North,7,13.0,13.0,61,0.00,OVC,,0.00,0.0,WeatherDisplay:10.37,2013-06-29 19:15:00,
2013-06-29 14:20:00,66.8,52.9,29.88,ENE,57,12.7,12.7,61,0.00,OVC,,0.00,0.0,WeatherDisplay:10.37,2013-06-29 19:20:00,
2013-06-29 14:25:00,66.9,51.6,29.89,NE,52,16.1,16.1,58,0.00,OVC,,0.00,0.0,WeatherDisplay:10.37,2013-06-29 19:25:00,
2013-06-29 14:30:00,67.1,51.8,29.89,NE,37,11.5,11.5,58,0.00,OVC,,0.00,0.0,WeatherDisplay:10.37,2013-06-29 19:30:00,
2013-06-29 14:35:00,68.4,54.9,29.89,North,349,15.0,15.0,62,0.00,OVC,,0.00,0.0,WeatherDisplay:10.37,2013-06-29 19:35:00,
2013-06-29 14:40:00,68.4,52.1,29.89,North,7,17.0,17.0,56,0.00,OVC,,0.00,0.0,WeatherDisplay:10.37,2013-06-29 19:40:00,
2013-06-29 14:45:00,67.4,50.7,29.89,NNE,13,19.6,19.6,55,0.00,OVC,,0.00,0.0,WeatherDisplay:10.37,2013-06-29 19:45:00,
2013-06-29 14:51:00,66.8,50.6,29.89,North,354,21.9,21.9,56,0.00,OVC,,0.00,0.0,WeatherDisplay:10.37,2013-06-29 19:51:00,
2013-06-29 14:56:00,66.8,51.1,29.89,NNE,27,13.8,13.8,57,0.00,OVC,,0.00,0.0,WeatherDisplay:10.37,2013-06-29 19:56:00,
2013-06-29 15:01:00,66.8,50.1,29.89,NNE,28,12.0,12.0,55,0.00,OVC,,0.00,0.0,WeatherDisplay:10.37,2013-06-29 20:01:00,
2013-06-29 15:06:00,67.1,51.4,29.89,North,9,14.0,14.0,57,0.00,OVC,,0.00,0.0,WeatherDisplay:10.37,2013-06-29 20:06:00,
2013-06-29 15:11:00,66.8,50.1,29.89,ENE,71,12.7,12.7,55,0.00,OVC,,0.00,0.0,WeatherDisplay:10.37,2013-06-29 20:11:00,
2013-06-29 15:16:00,66.4,50.2,29.89,NNE,17,18.4,18.4,56,0.00,OVC,,0.00,0.0,WeatherDisplay:10.37,2013-06-29 20:16:00,
2013-06-29 15:21:00,66.1,50.4,29.89,North,360,15.0,15.0,57,0.00,OVC,,0.00,0.0,WeatherDisplay:10.37,2013-06-29 20:21:00,
2013-06-29 15:27:00,65.8,51.5,29.90,NW,323,10.4,10.4,60,0.00,OVC,,0.00,0.0,WeatherDisplay:10.37,2013-06-29 20:27:00,
2013-06-29 15:32:00,65.8,50.1,29.90,North,7,13.8,13.8,57,0.00,OVC,,0.00,0.0,WeatherDisplay:10.37,2013-06-29 20:32:00,
2013-06-29 15:37:00,65.5,50.3,29.90,North,352,18.4,18.4,58,0.00,OVC,,0.00,0.0,WeatherDisplay:10.37,2013-06-29 20:37:00,
2013-06-29 15:42:00,65.2,49.6,29.90,North,2,13.0,13.0,57,0.00,OVC,,0.00,0.0,WeatherDisplay:10.37,2013-06-29 20:42:00,
2013-06-29 15:47:00,65.2,50.0,29.90,North,356,17.0,17.0,58,0.00,OVC,,0.00,0.0,WeatherDisplay:10.37,2013-06-29 20:47:00,
2013-06-29 15:52:00,65.2,49.1,29.89,NNE,17,15.0,15.0,56,0.00,OVC,,0.00,0.0,WeatherDisplay:10.37,2013-06-29 20:52:00,
2013-06-29 15:57:00,65.2,50.0,29.90,NNE,25,13.8,13.8,58,0.00,OVC,,0.00,0.0,WeatherDisplay:10.37,2013-06-29 20:57:00,
2013-06-29 16:02:00,65.2,51.0,29.90,NNE,19,11.5,11.5,60,0.00,OVC,,0.00,0.0,WeatherDisplay:10.37,2013-06-29 21:02:00,
2013-06-29 16:08:00,65.3,50.1,29.90,NNE,25,13.8,13.8,58,0.00,OVC,,0.00,0.0,WeatherDisplay:10.37,2013-06-29 21:08:00,
2013-06-29 16:13:00,65.5,50.3,29.89,North,9,11.5,11.5,58,0.00,OVC,,0.00,0.0,WeatherDisplay:10.37,2013-06-29 21:13:00,
2013-06-29 16:18:00,65.5,49.9,29.90,WNW,296,11.5,11.5,57,0.00,OVC,,0.00,0.0,WeatherDisplay:10.37,2013-06-29 21:18:00,
2013-06-29 16:23:00,65.5,49.4,29.89,NNW,344,17.3,17.3,56,0.00,OVC,,0.00,0.0,WeatherDisplay:10.37,2013-06-29 21:23:00,
2013-06-29 16:28:00,65.5,50.3,29.90,NNE,23,9.2,9.2,58,0.00,OVC,,0.00,0.0,WeatherDisplay:10.37,2013-06-29 21:28:00,
2013-06-29 16:33:00,65.6,49.0,29.90,NNE,25,10.4,10.4,55,0.00,OVC,,0.00,0.0,WeatherDisplay:10.37,2013-06-29 21:33:00,
2013-06-29 16:38:00,65.8,48.7,29.90,North,7,17.3,17.3,54,0.00,OVC,,0.00,0.0,WeatherDisplay:10.37,2013-06-29 21:38:00,
2013-06-29 16:44:00,65.6,48.5,29.90,North,358,12.7,12.7,54,0.00,OVC,,0.00,0.0,WeatherDisplay:10.37,2013-06-29 21:44:00,
2013-06-29 16:49:00,65.8,49.2,29.90,NE,36,8.1,8.1,55,0.00,OVC,,0.00,0.0,WeatherDisplay:10.37,2013-06-29 21:49:00,
2013-06-29 16:54:00,66.0,49.4,29.90,NNW,335,9.2,9.2,55,0.00,OVC,,0.00,0.0,WeatherDisplay:10.37,2013-06-29 21:54:00,
2013-06-29 16:59:00,66.0,49.4,29.90,NNE,26,16.1,16.1,55,0.00,OVC,,0.00,0.0,WeatherDisplay:10.37,2013-06-29 21:59:00,
2013-06-29 17:04:00,65.8,49.2,29.90,North,357,11.5,11.5,55,0.00,OVC,,0.00,0.0,WeatherDisplay:10.37,2013-06-29 22:04:00,
2013-06-29 17:09:00,65.8,49.2,29.91,NE,48,12.7,12.7,55,0.00,OVC,,0.00,0.0,WeatherDisplay:10.37,2013-06-29 22:09:00,
2013-06-29 17:14:00,65.5,48.9,29.91,North,360,12.7,12.7,55,0.00,OVC,,0.00,0.0,WeatherDisplay:10.37,2013-06-29 22:14:00,
2013-06-29 17:19:00,65.5,48.9,29.91,NNE,13,12.7,12.7,55,0.00,OVC,,0.00,0.0,WeatherDisplay:10.37,2013-06-29 22:19:00,
2013-06-29 17:25:00,65.3,49.2,29.91,NNE,16,3.0,12.0,56,0.00,OVC,OVC,0.00,0.0,WeatherDisplay:10.37,2013-06-29 22:25:00,
2013-06-29 17:30:00,65.2,48.1,29.91,NNE,25,8.0,17.0,54,0.00,OVC,OVC,0.00,0.0,WeatherDisplay:10.37,2013-06-29 22:30:00,
2013-06-29 17:35:00,65.2,48.6,29.91,NE,41,11.5,11.5,55,0.00,OVC,,0.00,0.0,WeatherDisplay:10.37,2013-06-29 22:35:00,
2013-06-29 17:40:00,64.8,47.8,29.91,NE,38,9.0,14.0,54,0.00,OVC,OVC,0.00,0.0,WeatherDisplay:10.37,2013-06-29 22:40:00,
2013-06-29 17:45:00,64.5,48.4,29.91,NNE,19,10.4,10.4,56,0.00,OVC,,0.00,0.0,WeatherDisplay:10.37,2013-06-29 22:45:00,
2013-06-29 17:50:00,64.3,48.7,29.91,ENE,75,11.0,11.0,57,0.00,OVC,,0.00,0.0,WeatherDisplay:10.37,2013-06-29 22:50:00,
2013-06-29 17:55:00,64.3,48.7,29.91,NNE,13,11.5,11.5,57,0.00,OVC,,0.00,0.0,WeatherDisplay:10.37,2013-06-29 22:55:00,
2013-06-29 18:00:00,64.3,48.3,29.91,NNE,21,9.2,9.2,56,0.00,OVC,,0.00,0.0,WeatherDisplay:10.37,2013-06-29 23:00:00,
2013-06-29 18:05:00,64.5,48.9,29.91,NE,36,10.4,10.4,57,0.00,OVC,,0.00,0.0,WeatherDisplay:10.37,2013-06-29 23:05:00,
2013-06-29 18:10:00,64.7,48.6,29.91,NNE,21,13.0,13.0,56,0.00,OVC,,0.00,0.0,WeatherDisplay:10.37,2013-06-29 23:10:00,
2013-06-29 18:15:00,64.5,48.0,29.91,NNE,30,11.5,11.5,55,0.00,OVC,,0.00,0.0,WeatherDisplay:10.37,2013-06-29 23:15:00,
2013-06-29 18:21:00,64.5,48.4,29.91,NNE,20,9.2,9.2,56,0.00,OVC,,0.00,0.0,WeatherDisplay:10.37,2013-06-29 23:21:00,
2013-06-29 18:26:00,64.3,48.7,29.91,ENE,69,10.4,10.4,57,0.00,OVC,,0.00,0.0,WeatherDisplay:10.37,2013-06-29 23:26:00,
2013-06-29 18:31:00,64.3,47.8,29.91,NE,38,10.4,10.4,55,0.00,OVC,,0.00,0.0,WeatherDisplay:10.37,2013-06-29 23:31:00,
2013-06-29 18:36:00,64.0,48.5,29.91,NE,51,11.5,11.5,57,0.00,OVC,,0.00,0.0,WeatherDisplay:10.37,2013-06-29 23:36:00,
2013-06-29 18:41:00,63.9,47.9,29.92,NNE,27,11.5,11.5,56,0.00,OVC,,0.00,0.0,WeatherDisplay:10.37,2013-06-29 23:41:00,
2013-06-29 18:46:00,63.7,47.7,29.92,East,88,11.5,11.5,56,0.00,OVC,,0.00,0.0,WeatherDisplay:10.37,2013-06-29 23:46:00,
2013-06-29 18:51:00,63.2,44.8,29.92,NE,35,11.5,11.5,51,0.00,OVC,,0.00,0.0,WeatherDisplay:10.37,2013-06-29 23:51:00,
2013-06-29 18:57:00,63.2,44.8,29.92,NE,42,13.8,13.8,51,0.00,OVC,,0.00,0.0,WeatherDisplay:10.37,2013-06-29 23:57:00,
2013-06-29 19:02:00,63.1,45.2,29.92,NE,46,10.4,10.4,52,0.00,CLR,,0.00,0.0,WeatherDisplay:10.37,2013-06-30 00:02:00,
2013-06-29 19:07:00,62.7,44.8,29.92,NE,42,8.1,8.1,52,0.00,CLR,,0.00,0.0,WeatherDisplay:10.37,2013-06-30 00:07:00,
2013-06-29 19:12:00,62.6,45.7,29.92,North,11,6.9,6.9,54,0.00,CLR,,0.00,0.0,WeatherDisplay:10.37,2013-06-30 00:12:00,
2013-06-29 19:17:00,62.1,45.2,29.92,NE,37,6.9,6.9,54,0.00,CLR,,0.00,0.0,WeatherDisplay:10.37,2013-06-30 00:17:00,
2013-06-29 19:22:00,62.1,45.7,29.92,NNE,25,9.2,9.2,55,0.00,CLR,,0.00,0.0,WeatherDisplay:10.37,2013-06-30 00:22:00,
2013-06-29 19:27:00,62.1,45.7,29.93,NNE,18,6.9,6.9,55,0.00,CLR,,0.00,0.0,WeatherDisplay:10.37,2013-06-30 00:27:00,
2013-06-29 19:32:00,62.0,45.6,29.93,NNE,17,8.1,8.1,55,0.00,CLR,,0.00,0.0,WeatherDisplay:10.37,2013-06-30 00:32:00,
2013-06-29 19:38:00,62.0,45.6,29.93,NE,40,8.0,8.0,55,0.00,CLR,,0.00,0.0,WeatherDisplay:10.37,2013-06-30 00:38:00,
2013-06-29 19:43:00,61.6,45.7,29.93,NNE,33,6.9,6.9,56,0.00,CLR,,0.00,0.0,WeatherDisplay:10.37,2013-06-30 00:43:00,
2013-06-29 19:48:00,61.5,45.2,29.93,NNE,16,5.0,5.0,55,0.00,CLR,,0.00,0.0,WeatherDisplay:10.37,2013-06-30 00:48:00,
2013-06-29 19:53:00,61.0,45.7,29.93,North,2,6.9,6.9,57,0.00,CLR,,0.00,0.0,WeatherDisplay:10.37,2013-06-30 00:53:00,
2013-06-29 19:58:00,61.0,47.4,29.93,North,351,8.1,8.1,61,0.00,CLR,,0.00,0.0,WeatherDisplay:10.37,2013-06-30 00:58:00,
2013-06-29 20:03:00,60.7,46.3,29.93,NNE,13,4.0,4.0,59,0.00,CLR,,0.00,0.0,WeatherDisplay:10.37,2013-06-30 01:03:00,
2013-06-29 20:08:00,60.5,47.8,29.93,NNE,21,4.0,4.7,63,0.00,CLR,,0.00,0.0,WeatherDisplay:10.37,2013-06-30 01:08:00,
2013-06-29 20:14:00,60.1,49.1,29.93,NNE,17,5.0,5.0,67,0.00,CLR,,0.00,0.0,WeatherDisplay:10.37,2013-06-30 01:14:00,
2013-06-29 20:19:00,59.8,47.6,29.93,NNE,21,5.0,5.0,64,0.00,CLR,,0.00,0.0,WeatherDisplay:10.37,2013-06-30 01:19:00,
2013-06-29 20:24:00,59.5,47.7,29.93,NNE,21,3.5,3.5,65,0.00,CLR,,0.00,0.0,WeatherDisplay:10.37,2013-06-30 01:24:00,
2013-06-29 20:29:00,58.9,50.3,29.93,NNE,21,3.5,3.5,73,0.00,CLR,,0.00,0.0,WeatherDisplay:10.37,2013-06-30 01:29:00,
2013-06-29 20:34:00,58.1,50.6,29.93,NNE,21,3.5,3.5,76,0.00,CLR,,0.00,0.0,WeatherDisplay:10.37,2013-06-30 01:34:00,
2013-06-29 20:39:00,57.3,50.8,29.94,NNE,21,4.0,4.0,79,0.00,CLR,,0.00,0.0,WeatherDisplay:10.37,2013-06-30 01:39:00,
2013-06-29 20:44:00,57.3,49.4,29.94,NNE,21,4.6,4.6,75,0.00,CLR,,0.00,0.0,WeatherDisplay:10.37,2013-06-30 01:44:00,
2013-06-29 20:49:00,57.6,50.4,29.94,NNE,21,4.0,4.0,77,0.00,CLR,,0.00,0.0,WeatherDisplay:10.37,2013-06-30 01:49:00,
2013-06-29 20:55:00,56.7,50.9,29.94,NNE,21,1.0,4.0,81,0.00,CLR,CLR,0.00,0.0,WeatherDisplay:10.37,2013-06-30 01:55:00,
2013-06-29 21:00:00,55.9,50.9,29.94,NNE,21,2.0,4.0,83,0.00,CLR,CLR,0.00,0.0,WeatherDisplay:10.37,2013-06-30 02:00:00,
2013-06-29 21:05:00,55.4,50.0,29.94,NNE,21,3.0,7.0,82,0.00,CLR,CLR,0.00,0.0,WeatherDisplay:10.37,2013-06-30 02:05:00,
2013-06-29 21:10:00,55.1,50.4,29.94,NNE,21,2.0,4.0,84,0.00,CLR,CLR,0.00,0.0,WeatherDisplay:10.37,2013-06-30 02:10:00,
2013-06-29 21:15:00,54.7,50.3,29.94,NNE,21,3.5,3.5,85,0.00,CLR,,0.00,0.0,WeatherDisplay:10.37,2013-06-30 02:15:00,
2013-06-29 21:20:00,54.4,50.6,29.94,NNE,21,4.0,4.0,87,0.00,CLR,,0.00,0.0,WeatherDisplay:10.37,2013-06-30 02:20:00,
2013-06-29 21:25:00,54.1,50.3,29.94,NNE,21,4.6,4.6,87,0.00,CLR,,0.00,0.0,WeatherDisplay:10.37,2013-06-30 02:25:00,
2013-06-29 21:30:00,53.9,50.1,29.95,NNE,21,4.0,4.0,87,0.00,CLR,,0.00,0.0,WeatherDisplay:10.37,2013-06-30 02:30:00,
2013-06-29 21:35:00,53.6,49.8,29.95,NNE,21,4.0,4.0,87,0.00,CLR,,0.00,0.0,WeatherDisplay:10.37,2013-06-30 02:35:00,
2013-06-29 21:40:00,53.8,50.3,29.95,NNE,21,3.5,3.5,88,0.00,CLR,,0.00,0.0,WeatherDisplay:10.37,2013-06-30 02:40:00,
2013-06-29 21:45:00,53.6,50.1,29.95,NNE,21,3.5,3.5,88,0.00,CLR,,0.00,0.0,WeatherDisplay:10.37,2013-06-30 02:45:00,
2013-06-29 21:51:00,53.5,50.0,29.95,NNE,21,4.6,4.6,88,0.00,CLR,,0.00,0.0,WeatherDisplay:10.37,2013-06-30 02:51:00,
2013-06-29 21:56:00,53.5,50.3,29.95,NNE,18,5.0,5.0,89,0.00,CLR,,0.00,0.0,WeatherDisplay:10.37,2013-06-30 02:56:00,
2013-06-29 22:01:00,53.2,50.0,29.95,NNE,17,5.0,5.0,89,0.00,CLR,,0.00,0.0,WeatherDisplay:10.37,2013-06-30 03:01:00,
2013-06-29 22:06:00,53.1,49.9,29.95,NNE,16,4.6,4.6,89,0.00,CLR,,0.00,0.0,WeatherDisplay:10.37,2013-06-30 03:06:00,
2013-06-29 22:11:00,52.9,50.0,29.95,NNE,16,4.6,4.6,90,0.00,CLR,,0.00,0.0,WeatherDisplay:10.37,2013-06-30 03:11:00,
2013-06-29 22:16:00,52.8,49.9,29.95,NNE,16,4.6,4.6,90,0.00,CLR,,0.00,0.0,WeatherDisplay:10.37,2013-06-30 03:16:00,
2013-06-29 22:21:00,53.1,50.2,29.95,NNE,16,5.0,5.0,90,0.00,CLR,,0.00,0.0,WeatherDisplay:10.37,2013-06-30 03:21:00,
2013-06-29 22:27:00,53.5,50.0,29.95,NNE,15,5.0,5.0,88,0.00,CLR,,0.00,0.0,WeatherDisplay:10.37,2013-06-30 03:27:00,
2013-06-29 22:32:00,53.9,49.2,29.95,North,2,5.0,5.0,84,0.00,CLR,,0.00,0.0,WeatherDisplay:10.37,2013-06-30 03:32:00,
2013-06-29 22:37:00,53.9,50.4,29.96,North,2,5.8,5.8,88,0.00,CLR,,0.00,0.0,WeatherDisplay:10.37,2013-06-30 03:37:00,
2013-06-29 22:42:00,53.5,50.0,29.95,North,2,5.8,5.8,88,0.00,CLR,,0.00,0.0,WeatherDisplay:10.37,2013-06-30 03:42:00,
2013-06-29 22:47:00,53.2,50.0,29.96,North,2,5.8,5.8,89,0.00,CLR,,0.00,0.0,WeatherDisplay:10.37,2013-06-30 03:47:00,
2013-06-29 22:52:00,52.9,50.0,29.96,North,2,7.0,7.0,90,0.00,CLR,,0.00,0.0,WeatherDisplay:10.37,2013-06-30 03:52:00,
2013-06-29 22:57:00,52.8,50.2,29.96,North,2,6.0,6.0,91,0.00,CLR,,0.00,0.0,WeatherDisplay:10.37,2013-06-30 03:57:00,
2013-06-29 23:01:00,52.6,50.0,29.96,North,2,5.0,5.0,91,0.00,CLR,,0.00,0.0,WeatherDisplay:10.37,2013-06-30 04:01:00,
2013-06-29 23:02:00,52.5,49.9,29.96,North,2,5.0,5.0,91,0.00,CLR,,0.00,0.0,WeatherDisplay:10.37,2013-06-30 04:02:00,
2013-06-29 23:08:00,52.3,49.8,29.96,North,2,6.9,6.9,91,0.00,CLR,,0.00,0.0,WeatherDisplay:10.37,2013-06-30 04:08:00,
2013-06-29 23:13:00,52.3,50.0,29.96,North,358,8.1,8.1,92,0.00,CLR,,0.00,0.0,WeatherDisplay:10.37,2013-06-30 04:13:00,
2013-06-29 23:18:00,52.3,50.0,29.96,North,358,6.9,6.9,92,0.00,CLR,,0.00,0.0,WeatherDisplay:10.37,2013-06-30 04:18:00,
2013-06-29 23:23:00,52.3,49.8,29.96,North,358,6.0,6.0,91,0.00,CLR,,0.00,0.0,WeatherDisplay:10.37,2013-06-30 04:23:00,
2013-06-29 23:28:00,52.3,49.8,29.96,North,360,6.9,6.9,91,0.00,CLR,,0.00,0.0,WeatherDisplay:10.37,2013-06-30 04:28:00,
2013-06-29 23:33:00,52.3,49.8,29.96,North,359,6.9,6.9,91,0.00,CLR,,0.00,0.0,WeatherDisplay:10.37,2013-06-30 04:33:00,
2013-06-29 23:38:00,52.3,49.8,29.96,North,352,7.0,7.0,91,0.00,CLR,,0.00,0.0,WeatherDisplay:10.37,2013-06-30 04:38:00,
2013-06-29 23:44:00,52.3,49.8,29.96,North,352,5.8,5.8,91,0.00,CLR,,0.00,0.0,WeatherDisplay:10.37,2013-06-30 04:44:00,
2013-06-29 23:49:00,52.3,49.8,29.97,North,352,6.0,6.0,91,0.00,CLR,,0.00,0.0,WeatherDisplay:10.37,2013-06-30 04:49:00,
2013-06-29 23:54:00,52.3,49.5,29.96,North,352,6.0,6.0,90,0.00,CLR,,0.00,0.0,WeatherDisplay:10.37,2013-06-30 04:54:00,
2013-06-29 23:59:00,52.3,49.5,29.97,North,350,6.0,6.0,90,0.00,CLR,,0.00,0.0,WeatherDisplay:10.37,2013-06-30 04:59:00,